createdAt,value
2018-01-15T00:01:44.253Z,17.98
2018-01-15T00:04:11.128Z,20.77
2018-01-15T00:06:37.395Z,18.10
2018-01-15T00:09:04.659Z,20.37
2018-01-15T00:11:30.857Z,18.50
2018-01-15T00:13:59.119Z,16.98
2018-01-15T00:16:29.690Z,17.30
2018-01-15T00:18:55.988Z,17.27
2018-01-15T00:21:23.260Z,15.32
2018-01-15T00:23:49.489Z,16.62
2018-01-15T00:26:15.728Z,17.20
2018-01-15T00:28:42.454Z,15.70
2018-01-15T00:31:08.702Z,17.15
2018-01-15T00:33:34.940Z,15.88
2018-01-15T00:36:01.165Z,17.17
2018-01-15T00:38:27.409Z,15.85
2018-01-15T00:40:53.656Z,15.35
2018-01-15T00:43:19.846Z,16.67
2018-01-15T00:45:46.042Z,16.77
2018-01-15T00:48:12.388Z,16.70
2018-01-15T00:50:38.844Z,17.17
2018-01-15T00:53:06.017Z,17.27
2018-01-15T00:55:32.199Z,16.90
2018-01-15T00:57:58.439Z,16.90
2018-01-15T01:00:25.008Z,17.27
2018-01-15T01:02:51.338Z,18.23
2018-01-15T01:05:18.407Z,17.52
2018-01-15T01:07:44.649Z,18.45
2018-01-15T01:10:11.227Z,18.27
2018-01-15T01:12:38.237Z,19.70
2018-01-15T01:15:04.894Z,17.52
2018-01-15T01:17:31.078Z,17.77
2018-01-15T01:19:57.271Z,18.42
2018-01-15T01:22:23.559Z,19.23
2018-01-15T01:24:49.873Z,18.83
2018-01-15T01:27:16.523Z,17.55
2018-01-15T01:29:42.806Z,18.48
2018-01-15T01:32:09.014Z,18.37
2018-01-15T01:34:36.164Z,19.02
2018-01-15T01:37:02.509Z,17.73
2018-01-15T01:39:28.798Z,19.12
2018-01-15T01:41:55.032Z,17.85
2018-01-15T01:44:21.291Z,17.33
2018-01-15T01:46:47.495Z,18.80
2018-01-15T01:49:13.794Z,18.10
2018-01-15T01:51:40.440Z,18.40
2018-01-15T01:54:06.718Z,19.10
2018-01-15T01:56:32.943Z,16.15
2018-01-15T01:58:59.906Z,18.62
2018-01-15T02:01:26.140Z,20.02
2018-01-15T02:03:52.431Z,18.40
2018-01-15T02:06:19.000Z,19.15
2018-01-15T02:08:45.263Z,20.15
2018-01-15T02:11:11.880Z,18.45
2018-01-15T02:13:38.126Z,17.42
2018-01-15T02:16:04.786Z,18.10
2018-01-15T02:18:30.996Z,19.65
2018-01-15T02:20:57.684Z,18.15
2018-01-15T02:23:23.913Z,18.85
2018-01-15T02:25:50.167Z,18.70
2018-01-15T02:28:16.403Z,19.37
2018-01-15T02:30:43.037Z,21.55
2018-01-15T02:33:09.259Z,18.15
2018-01-15T02:35:35.490Z,17.60
2018-01-15T02:38:01.717Z,17.50
2018-01-15T02:40:27.942Z,17.67
2018-01-15T02:42:54.175Z,18.10
2018-01-15T02:45:20.398Z,17.25
2018-01-15T02:47:47.444Z,19.02
2018-01-15T02:50:14.269Z,19.12
2018-01-15T02:52:40.462Z,19.42
2018-01-15T02:55:06.694Z,18.65
2018-01-15T02:57:33.040Z,19.20
2018-01-15T02:59:59.489Z,18.23
2018-01-15T03:02:25.671Z,18.62
2018-01-15T03:04:51.877Z,19.17
2018-01-15T03:07:18.483Z,18.55
2018-01-15T03:09:44.699Z,19.00
2018-01-15T03:12:10.952Z,20.02
2018-01-15T03:14:37.684Z,18.50
2018-01-15T03:17:03.911Z,16.17
2018-01-15T03:19:30.119Z,18.30
2018-01-15T03:21:56.332Z,19.52
2018-01-15T03:24:22.531Z,19.60
2018-01-15T03:26:49.114Z,19.55
2018-01-15T03:29:15.368Z,19.40
2018-01-15T03:31:42.646Z,20.10
2018-01-15T03:34:08.839Z,18.65
2018-01-15T03:36:35.052Z,18.40
2018-01-15T03:39:01.259Z,20.70
2018-01-15T03:41:27.528Z,17.45
2018-01-15T03:43:53.738Z,19.37
2018-01-15T03:46:19.970Z,19.55
2018-01-15T03:48:47.456Z,19.23
2018-01-15T03:51:13.754Z,18.73
2018-01-15T03:53:39.968Z,19.70
2018-01-15T03:56:06.214Z,18.42
2018-01-15T03:58:32.455Z,19.05
2018-01-15T04:00:58.667Z,16.73
2018-01-15T04:03:24.918Z,16.92
2018-01-15T04:05:51.139Z,18.60
2018-01-15T04:08:17.322Z,18.23
2018-01-15T04:10:43.571Z,18.65
2018-01-15T04:13:09.762Z,18.48
2018-01-15T04:15:36.013Z,18.55
2018-01-15T04:18:02.296Z,19.75
2018-01-15T04:20:28.892Z,18.42
2018-01-15T04:22:55.076Z,20.27
2018-01-15T04:25:21.900Z,20.27
2018-01-15T04:27:48.537Z,18.35
2018-01-15T04:30:15.160Z,20.02
2018-01-15T04:32:41.384Z,20.23
2018-01-15T04:35:07.646Z,20.65
2018-01-15T04:37:34.270Z,18.60
2018-01-15T04:40:00.501Z,19.85
2018-01-15T04:42:26.730Z,20.45
2018-01-15T04:44:52.995Z,19.55
2018-01-15T04:47:19.222Z,19.50
2018-01-15T04:49:45.444Z,20.37
2018-01-15T04:52:12.229Z,22.00
2018-01-15T04:54:38.580Z,22.48
2018-01-15T04:57:04.826Z,19.15
2018-01-15T04:59:31.091Z,20.25
2018-01-15T05:01:57.328Z,17.83
2018-01-15T05:04:24.527Z,22.65
2018-01-15T05:06:51.074Z,19.48
2018-01-15T05:09:17.434Z,18.05
2018-01-15T05:11:43.659Z,20.40
2018-01-15T05:14:09.903Z,19.27
2018-01-15T05:16:36.831Z,20.80
2018-01-15T05:19:03.919Z,22.80
2018-01-15T05:21:30.479Z,20.30
2018-01-15T05:23:56.674Z,22.40
2018-01-15T05:26:23.794Z,20.25
2018-01-15T05:28:50.135Z,20.55
2018-01-15T05:31:16.394Z,20.60
2018-01-15T05:33:43.538Z,21.02
2018-01-15T05:36:09.738Z,19.25
2018-01-15T05:38:36.593Z,21.08
2018-01-15T05:41:02.862Z,19.62
2018-01-15T05:43:29.344Z,21.37
2018-01-15T05:45:55.767Z,21.83
2018-01-15T05:48:24.914Z,21.42
2018-01-15T05:50:51.114Z,23.00
2018-01-15T05:53:17.376Z,19.02
2018-01-15T05:55:44.095Z,20.40
2018-01-15T05:58:10.339Z,19.90
2018-01-15T06:00:36.594Z,20.92
2018-01-15T06:03:02.850Z,22.55
2018-01-15T06:05:29.714Z,21.42
2018-01-15T06:07:55.910Z,20.83
2018-01-15T06:10:22.160Z,21.95
2018-01-15T06:12:48.425Z,21.62
2018-01-15T06:15:14.665Z,20.75
2018-01-15T06:17:41.243Z,23.50
2018-01-15T06:20:07.445Z,23.35
2018-01-15T06:22:33.694Z,19.30
2018-01-15T06:24:59.943Z,21.48
2018-01-15T06:27:27.239Z,20.65
2018-01-15T06:29:53.460Z,20.62
2018-01-15T06:32:19.711Z,18.95
2018-01-15T06:34:45.999Z,21.30
2018-01-15T06:37:12.299Z,21.90
2018-01-15T06:39:38.552Z,19.55
2018-01-15T06:42:04.845Z,21.85
2018-01-15T06:44:33.496Z,19.85
2018-01-15T06:47:00.143Z,19.90
2018-01-15T06:49:28.037Z,20.40
2018-01-15T06:51:57.385Z,20.60
2018-01-15T06:54:23.655Z,19.83
2018-01-15T06:56:49.861Z,22.25
2018-01-15T06:59:16.729Z,20.20
2018-01-15T07:01:42.962Z,21.20
2018-01-15T07:04:09.207Z,21.87
2018-01-15T07:06:35.461Z,20.92
2018-01-15T07:09:01.751Z,20.50
2018-01-15T07:11:27.982Z,19.55
2018-01-15T07:13:54.216Z,20.12
2018-01-15T07:16:20.457Z,21.90
2018-01-15T07:18:46.683Z,22.00
2018-01-15T07:21:12.969Z,19.77
2018-01-15T07:23:39.598Z,19.85
2018-01-15T07:26:06.230Z,22.10
2018-01-15T07:28:32.884Z,19.73
2018-01-15T07:31:01.235Z,22.62
2018-01-15T07:33:27.562Z,21.05
2018-01-15T07:35:53.782Z,21.10
2018-01-15T07:38:20.016Z,20.67
2018-01-15T07:40:46.242Z,21.65
2018-01-15T07:43:13.145Z,20.98
2018-01-15T07:45:39.393Z,20.75
2018-01-15T07:48:06.588Z,21.30
2018-01-15T07:50:33.208Z,21.00
2018-01-15T07:52:59.492Z,21.50
2018-01-15T07:55:25.835Z,19.58
2018-01-15T07:57:52.387Z,22.00
2018-01-15T08:00:18.625Z,20.92
2018-01-15T08:02:44.803Z,19.87
2018-01-15T08:05:11.755Z,19.85
2018-01-15T08:07:38.022Z,22.35
2018-01-15T08:10:04.307Z,20.65
2018-01-15T08:12:30.516Z,21.77
2018-01-15T08:14:56.771Z,22.65
2018-01-15T08:17:23.014Z,21.85
2018-01-15T08:19:49.268Z,20.95
2018-01-15T08:22:15.551Z,20.42
2018-01-15T08:24:41.770Z,21.70
2018-01-15T08:27:08.042Z,22.33
2018-01-15T08:29:34.271Z,20.55
2018-01-15T08:32:00.471Z,22.55
2018-01-15T08:34:26.748Z,21.92
2018-01-15T08:36:52.935Z,22.50
2018-01-15T08:39:19.162Z,23.70
2018-01-15T08:41:45.363Z,22.80
2018-01-15T08:44:12.552Z,22.67
2018-01-15T08:46:38.823Z,21.73
2018-01-15T08:49:11.754Z,22.52
2018-01-15T08:51:37.963Z,21.17
2018-01-15T08:54:04.167Z,22.20
2018-01-15T08:56:30.436Z,22.65
2018-01-15T08:58:56.693Z,21.17
2018-01-15T09:01:23.968Z,22.40
2018-01-15T09:03:50.245Z,25.67
2018-01-15T09:06:16.503Z,23.65
2018-01-15T09:08:47.226Z,23.00
2018-01-15T09:11:14.082Z,21.42
2018-01-15T09:13:40.523Z,21.50
2018-01-15T09:16:07.225Z,21.70
2018-01-15T09:18:33.492Z,22.30
2018-01-15T09:21:00.991Z,21.83
2018-01-15T09:23:27.254Z,22.73
2018-01-15T09:25:55.875Z,22.40
2018-01-15T09:28:22.176Z,21.15
2018-01-15T09:30:48.474Z,22.05
2018-01-15T09:33:14.712Z,23.17
2018-01-15T09:35:40.971Z,23.27
2018-01-15T09:38:08.294Z,22.33
2018-01-15T09:40:35.100Z,22.70
2018-01-15T09:43:01.710Z,20.75
2018-01-15T09:45:28.566Z,22.98
2018-01-15T09:47:54.787Z,22.73
2018-01-15T09:50:21.147Z,24.10
2018-01-15T09:52:48.439Z,22.48
2018-01-15T09:55:14.672Z,24.37
2018-01-15T09:57:40.922Z,21.02
2018-01-15T10:00:07.306Z,22.02
2018-01-15T10:02:33.567Z,22.08
2018-01-15T10:04:59.837Z,24.45
2018-01-15T10:07:26.148Z,22.95
2018-01-15T10:09:52.595Z,22.48
2018-01-15T10:12:18.874Z,21.58
2018-01-15T10:14:45.088Z,22.77
2018-01-15T10:17:11.330Z,23.30
2018-01-15T10:19:37.559Z,22.85
2018-01-15T10:22:03.753Z,22.25
2018-01-15T10:24:30.395Z,22.70
2018-01-15T10:26:56.692Z,23.27
2018-01-15T10:29:22.957Z,22.58
2018-01-15T10:31:49.232Z,22.10
2018-01-15T10:34:15.572Z,22.58
2018-01-15T10:36:41.843Z,23.73
2018-01-15T10:39:08.135Z,23.05
2018-01-15T10:41:34.421Z,20.30
2018-01-15T10:44:01.355Z,22.42
2018-01-15T10:46:27.601Z,21.75
2018-01-15T10:48:53.867Z,21.77
2018-01-15T10:51:20.099Z,22.40
2018-01-15T10:53:46.399Z,22.42
2018-01-15T10:56:12.657Z,22.70
2018-01-15T10:58:38.944Z,24.45
2018-01-15T11:01:11.368Z,23.55
2018-01-15T11:03:37.603Z,21.55
2018-01-15T11:06:04.319Z,20.10
2018-01-15T11:08:30.583Z,21.70
2018-01-15T11:10:59.677Z,22.67
2018-01-15T11:16:09.874Z,22.62
2018-01-15T11:18:36.424Z,21.42
2018-01-15T11:21:06.408Z,21.92
2018-01-15T11:23:33.453Z,20.48
2018-01-15T11:46:28.722Z,21.98
2018-01-15T11:48:54.901Z,20.05
2018-01-15T11:51:21.176Z,20.62
2018-01-15T11:53:47.431Z,20.80
2018-01-15T11:56:13.651Z,20.65
2018-01-15T11:58:39.868Z,21.52
2018-01-15T12:01:06.465Z,18.98
2018-01-15T12:03:32.658Z,20.25
2018-01-15T12:05:58.831Z,21.05
2018-01-15T12:08:25.023Z,20.27
2018-01-15T12:10:51.236Z,21.25
2018-01-15T12:13:17.429Z,21.02
2018-01-15T12:15:43.636Z,20.70
2018-01-15T12:18:09.903Z,20.52
2018-01-15T12:20:36.120Z,21.17
2018-01-15T12:23:02.686Z,20.08
2018-01-15T12:25:29.931Z,19.52
2018-01-15T12:27:56.505Z,18.90
2018-01-15T12:30:22.735Z,19.40
2018-01-15T12:32:48.915Z,18.20
2018-01-15T12:35:15.170Z,19.60
2018-01-15T12:37:42.217Z,18.95
2018-01-15T12:40:08.422Z,20.10
2018-01-15T12:42:34.632Z,20.00
2018-01-15T12:45:00.829Z,19.50
2018-01-15T12:47:27.068Z,20.23
2018-01-15T12:49:53.294Z,19.85
2018-01-15T12:52:19.510Z,20.27
2018-01-15T12:54:46.498Z,21.25
2018-01-15T12:57:13.113Z,18.73
2018-01-15T12:59:39.326Z,18.98
2018-01-15T13:02:05.522Z,20.23
2018-01-15T13:04:31.719Z,19.33
2018-01-15T13:06:57.913Z,19.90
2018-01-15T13:09:24.124Z,19.92
2018-01-15T13:11:50.340Z,18.98
2018-01-15T13:14:16.639Z,19.77
2018-01-15T13:16:42.964Z,21.25
2018-01-15T13:19:09.638Z,19.90
2018-01-15T13:21:35.839Z,19.12
2018-01-15T13:24:02.092Z,20.25
2018-01-15T13:26:28.438Z,20.45
2018-01-15T13:28:54.644Z,20.20
2018-01-15T13:31:20.874Z,18.65
2018-01-15T13:33:47.089Z,19.45
2018-01-15T13:36:13.285Z,19.40
2018-01-15T13:38:39.549Z,19.85
2018-01-15T13:41:05.713Z,21.35
2018-01-15T13:43:31.942Z,19.87
2018-01-15T13:45:58.160Z,18.65
2018-01-15T13:48:24.383Z,22.13
2018-01-15T13:50:50.569Z,20.67
2018-01-15T13:53:17.165Z,18.73
2018-01-15T13:55:43.422Z,19.50
2018-01-15T13:58:11.318Z,19.05
2018-01-15T14:00:37.632Z,20.30
2018-01-15T14:03:04.205Z,19.67
2018-01-15T14:05:30.435Z,19.00
2018-01-15T14:07:56.744Z,17.85
2018-01-15T14:10:22.976Z,18.60
2018-01-15T14:12:49.174Z,18.08
2018-01-15T14:15:15.790Z,18.10
2018-01-15T14:17:42.000Z,20.80
2018-01-15T14:20:08.185Z,19.80
2018-01-15T14:22:34.431Z,19.27
2018-01-15T14:25:00.648Z,22.65
2018-01-15T14:27:26.881Z,19.65
2018-01-15T14:29:53.156Z,19.35
2018-01-15T14:32:19.389Z,19.67
2018-01-15T14:34:45.702Z,19.67
2018-01-15T14:37:11.876Z,17.83
2018-01-15T14:39:38.322Z,18.10
2018-01-15T14:42:04.554Z,17.05
2018-01-15T14:44:30.818Z,17.65
2018-01-15T14:46:57.038Z,19.05
2018-01-15T14:49:23.275Z,18.80
2018-01-15T14:51:49.470Z,20.48
2018-01-15T14:54:15.698Z,21.02
2018-01-15T14:56:41.912Z,19.60
2018-01-15T14:59:08.306Z,18.90
2018-01-15T15:01:34.558Z,16.62
2018-01-15T15:04:00.784Z,16.42
2018-01-15T15:06:27.033Z,17.15
2018-01-15T15:08:53.261Z,16.92
2018-01-15T15:11:19.490Z,16.48
2018-01-15T15:13:45.719Z,15.18
2018-01-15T15:16:13.031Z,16.35
2018-01-15T15:18:39.245Z,15.13
2018-01-15T15:21:05.479Z,15.18
2018-01-15T15:23:31.679Z,15.27
2018-01-15T15:25:57.923Z,14.95
2018-01-15T15:28:24.178Z,16.45
2018-01-15T15:30:50.424Z,16.48
2018-01-15T15:33:16.674Z,14.77
2018-01-15T15:35:42.897Z,15.40
2018-01-15T15:38:09.784Z,13.73
2018-01-15T15:40:36.036Z,14.70
2018-01-15T15:43:02.250Z,14.30
2018-01-15T15:45:28.555Z,17.95
2018-01-15T15:47:54.761Z,15.57
2018-01-15T15:50:20.950Z,38.50
2018-01-15T15:52:47.168Z,23.77
2018-01-15T15:55:13.383Z,19.58
2018-01-15T15:57:39.595Z,17.45
2018-01-15T16:00:07.444Z,16.25
2018-01-15T16:02:33.730Z,15.15
2018-01-15T16:05:00.829Z,14.85
2018-01-15T16:07:27.059Z,14.77
2018-01-15T16:09:53.248Z,14.50
2018-01-15T16:12:19.991Z,16.80
2018-01-15T16:14:46.249Z,17.08
2018-01-15T16:17:12.526Z,18.40
2018-01-15T16:19:38.780Z,15.98
2018-01-15T16:22:17.174Z,16.75
2018-01-15T16:24:43.787Z,16.40
2018-01-15T16:27:09.977Z,15.98
2018-01-15T16:29:36.192Z,15.80
2018-01-15T16:32:02.433Z,17.20
2018-01-15T16:34:28.660Z,17.67
2018-01-15T16:36:54.933Z,19.70
2018-01-15T16:39:21.153Z,18.80
2018-01-15T16:41:48.021Z,18.05
2018-01-15T16:44:14.618Z,21.15
2018-01-15T16:46:40.874Z,17.35
2018-01-15T16:49:08.266Z,16.83
2018-01-15T16:51:34.452Z,18.15
2018-01-15T16:54:00.663Z,17.40
2018-01-15T16:56:26.993Z,17.52
2018-01-15T16:58:53.924Z,16.17
2018-01-15T17:01:20.194Z,16.92
2018-01-15T17:03:46.766Z,17.87
2018-01-15T17:06:13.021Z,17.00
2018-01-15T17:08:39.273Z,17.08
2018-01-15T17:11:05.474Z,17.48
2018-01-15T17:13:31.724Z,20.88
2018-01-15T17:15:57.963Z,18.23
2018-01-15T17:18:24.179Z,18.75
2018-01-15T17:20:50.993Z,15.27
2018-01-15T17:23:18.050Z,15.18
2018-01-15T17:25:44.268Z,16.67
2018-01-15T17:28:10.478Z,16.30
2018-01-15T17:30:37.356Z,14.70
2018-01-15T17:33:04.298Z,15.70
2018-01-15T17:35:30.534Z,15.05
2018-01-15T17:37:57.437Z,15.77
2018-01-15T17:40:23.709Z,15.90
2018-01-15T17:42:49.937Z,15.45
2018-01-15T17:45:16.144Z,16.73
2018-01-15T17:47:43.325Z,16.23
2018-01-15T17:50:09.534Z,16.75
2018-01-15T17:52:35.774Z,15.40
2018-01-15T17:55:02.242Z,14.98
2018-01-15T17:57:28.551Z,16.42
2018-01-15T17:59:54.837Z,17.42
2018-01-15T18:02:21.108Z,16.85
2018-01-15T18:04:47.673Z,16.23
2018-01-15T18:07:13.880Z,15.57
2018-01-15T18:09:40.116Z,15.48
2018-01-15T18:12:06.395Z,16.37
2018-01-15T18:14:32.674Z,16.25
2018-01-15T18:16:59.277Z,16.73
2018-01-15T18:19:25.493Z,15.23
2018-01-15T18:21:51.738Z,15.52
2018-01-15T18:24:18.587Z,15.80
2018-01-15T18:26:44.797Z,20.73
2018-01-15T18:29:12.101Z,20.15
2018-01-15T18:31:38.337Z,23.33
2018-01-15T18:34:04.624Z,20.45
2018-01-15T18:36:30.959Z,21.67
2018-01-15T18:38:57.646Z,16.77
2018-01-15T18:41:24.818Z,16.48
2018-01-15T18:43:51.124Z,16.45
2018-01-15T18:46:17.428Z,18.92
2018-01-15T18:48:43.727Z,19.15
2018-01-15T18:51:09.981Z,17.20
2018-01-15T18:53:36.618Z,17.85
2018-01-15T18:56:03.221Z,17.05
2018-01-15T18:58:30.176Z,17.08
2018-01-15T19:00:56.413Z,19.17
2018-01-15T19:03:22.741Z,19.83
2018-01-15T19:05:48.984Z,19.23
2018-01-15T19:08:15.633Z,19.65
2018-01-15T19:10:42.293Z,19.92
2018-01-15T19:13:08.559Z,21.80
2018-01-15T19:15:34.807Z,18.35
2018-01-15T19:18:01.086Z,18.05
2018-01-15T19:20:27.345Z,21.60
2018-01-15T19:22:53.583Z,20.65
2018-01-15T19:25:19.820Z,16.05
2018-01-15T19:27:46.094Z,15.98
2018-01-15T19:30:12.451Z,15.82
2018-01-15T19:32:38.729Z,16.58
2018-01-15T19:35:12.385Z,15.70
2018-01-15T19:37:38.634Z,16.67
2018-01-15T19:40:04.926Z,17.98
2018-01-15T19:42:31.187Z,16.67
2018-01-15T19:45:03.312Z,16.83
2018-01-15T19:47:50.461Z,17.05
2018-01-15T19:50:22.719Z,17.17
2018-01-15T19:52:55.013Z,16.65
2018-01-15T19:55:27.381Z,16.70
2018-01-15T19:57:59.689Z,15.70
2018-01-15T20:00:32.042Z,18.10
2018-01-15T20:03:04.354Z,15.43
2018-01-15T20:05:36.700Z,15.90
2018-01-15T20:08:09.057Z,15.20
2018-01-15T20:10:41.754Z,14.95
2018-01-15T20:13:08.093Z,14.10
2018-01-15T20:15:34.366Z,11.05
2018-01-15T20:18:00.626Z,12.40
2018-01-15T20:20:27.262Z,11.18
2018-01-15T20:22:53.523Z,12.18
2018-01-15T20:25:19.803Z,11.95
2018-01-15T20:27:46.124Z,11.35
2018-01-15T20:30:12.428Z,11.25
2018-01-15T20:32:38.752Z,12.98
2018-01-15T20:35:05.104Z,12.27
2018-01-15T20:37:31.385Z,14.10
2018-01-15T20:39:58.064Z,13.20
2018-01-15T20:42:24.368Z,13.32
2018-01-15T20:44:50.845Z,13.88
2018-01-15T20:47:17.243Z,12.48
2018-01-15T20:49:43.451Z,14.48
2018-01-15T20:52:09.704Z,14.38
2018-01-15T20:54:36.008Z,14.60
2018-01-15T20:57:02.276Z,14.77
2018-01-15T20:59:28.611Z,15.35
2018-01-15T21:01:54.889Z,14.50
2018-01-15T21:04:21.910Z,14.70
2018-01-15T21:06:48.168Z,14.93
2018-01-15T21:09:15.034Z,15.35
2018-01-15T21:11:41.359Z,30.45
2018-01-15T21:14:07.704Z,50.38
2018-01-15T21:16:33.933Z,55.67
2018-01-15T21:19:00.193Z,51.53
2018-01-15T21:21:26.436Z,31.90
2018-01-15T21:23:52.684Z,40.58
2018-01-15T21:26:19.041Z,37.90
2018-01-15T21:28:45.403Z,37.47
2018-01-15T21:31:11.613Z,26.95
2018-01-15T21:33:37.941Z,23.48
2018-01-15T21:36:04.151Z,23.35
2018-01-15T21:38:30.392Z,28.20
2018-01-15T21:40:57.543Z,19.23
2018-01-15T21:43:23.817Z,20.48
2018-01-15T21:45:50.460Z,19.98
2018-01-15T21:48:17.039Z,27.73
2018-01-15T21:50:43.333Z,17.45
2018-01-15T21:53:10.015Z,15.15
2018-01-15T21:55:36.200Z,13.82
2018-01-15T21:58:03.404Z,15.55
2018-01-15T22:00:29.724Z,13.55
2018-01-15T22:02:55.952Z,11.98
2018-01-15T22:05:22.538Z,13.85
2018-01-15T22:07:48.760Z,12.15
2018-01-15T22:10:15.358Z,12.40
2018-01-15T22:12:41.619Z,14.77
2018-01-15T22:15:07.874Z,10.00
2018-01-15T22:17:34.477Z,9.95
2018-01-15T22:20:00.784Z,8.30
2018-01-15T22:22:27.030Z,7.85
2018-01-15T22:24:53.208Z,8.68
2018-01-15T22:27:19.395Z,8.60
2018-01-15T22:29:45.611Z,10.40
2018-01-15T22:32:11.839Z,11.23
2018-01-15T22:34:38.061Z,12.27
2018-01-15T22:37:04.325Z,12.77
2018-01-15T22:39:30.671Z,11.32
2018-01-15T22:41:56.870Z,10.68
2018-01-15T22:44:23.212Z,10.95
2018-01-15T22:46:49.397Z,10.40
2018-01-15T22:49:15.593Z,10.15
2018-01-15T22:51:41.825Z,9.43
2018-01-15T22:54:08.027Z,11.15
2018-01-15T22:56:34.287Z,8.70
2018-01-15T22:59:00.532Z,10.30
2018-01-15T23:01:26.900Z,8.35
2018-01-15T23:03:53.108Z,10.15
2018-01-15T23:06:19.298Z,8.65
2018-01-15T23:08:45.514Z,9.30
2018-01-15T23:11:11.735Z,9.10
2018-01-15T23:13:37.948Z,6.32
2018-01-15T23:16:04.114Z,11.15
2018-01-15T23:18:30.332Z,8.00
2018-01-15T23:20:56.726Z,13.35
2018-01-15T23:23:22.921Z,9.20
2018-01-15T23:25:50.115Z,7.28
2018-01-15T23:28:16.746Z,7.70
2018-01-15T23:30:42.987Z,7.30
2018-01-15T23:33:09.595Z,6.65
2018-01-15T23:35:35.837Z,6.30
2018-01-15T23:38:02.016Z,10.82
2018-01-15T23:40:28.199Z,7.20
2018-01-15T23:42:54.801Z,7.28
2018-01-15T23:45:20.984Z,7.60
2018-01-15T23:47:48.191Z,7.80
2018-01-15T23:50:14.442Z,6.87
2018-01-15T23:52:40.674Z,7.15
2018-01-15T23:55:06.870Z,7.10
2018-01-15T23:57:33.065Z,7.30
2018-01-15T23:59:59.231Z,6.45
